Disclaimer

Please do not use the information listed here in-flight or in-navigation, as they are not provided to us by the airports but are provided by volunteers, so they might be outdated.

Search


Regions


Airport information page

Radio informations:
INFO - 128.5 MHz

Airport informations:
Latitude: 51° 23' 21.00" N
Longitude: 021° 12' 48.00" E
Elevation: 584 feet - 178 meters
Operating hours: N/A
Operating agency: Military
Timezone: N/A
Fuel: N/A

Runway information:
07/25 - 6544 x 203 feet< - >1995 x 62 meters

Recent METARs:
EPRA 170730Z 02003KT 350V070 5000 BR NSC M03/M03 Q1040
EPRA 170800Z 03005KT 6000 NSC M02/M02 Q1039
EPRA 170830Z 05004KT 7000 NSC M01/M02 Q1039

Airport on the map: